aviador You're here:

LFAT Decoded Metar

LE TOURQUET in FRANCE
Report Time2018-02-21 05:00:00
UTC Time2018-02-21 05:07:31
Flight Rules mvfr MVFR
Wind050° at 08 kt
W.Decomp.*RWY 14: 0.3 kt HW 8 kt LCW
W.Rank050° ranks 34
Current wind is above 050° avg. (6.9)
Visibility5000 m
Phenomena:Mist
Clouds:N/A
Expected CloudBase > 1,200 ft AGL from Temp-Dew spread
CeilingNone
Temp01°C (ISA -14)
Dew Point-2°C (81% RH)
AAT-4.1°C
QNH1025 hPa
Density Alt-1,985 ft
Elevation46 ft
Report Wrong Elevation
Raw Report
METAR LFAT 210500Z AUTO 05008KT 5000 BR NSC 01/M02 Q1025=

Extra information for LFAT:More info

Metar Taf Metar & Taf Last 4 Metars F.Rules Stats Wind Profile Meteogram Temp Stats Airport Information Weather charts Add Link Nearby VenuesMetar ALERT Operation Metar Decoded Social comments

LeTouquet left-side RWY
Le Touquet center RWY
Le Touquet right-side RWY